Aeroporto :
LOGIN :

Iscrizione | Disclaimer

   EN    FR    IT 

 










Sommario :    VFR   VFR Marginale   IFR   IFR Intensivo   IFR Molto Intensivo
Visibilità : 
Base nubi : 
>= 8 km
>= 3000ft
5 / 8 km
1000 / 3000 ft
1500m / 5 km
500 / 1000 ft
800 / 1500m
200 / 500 ft
< 800m
< 200 ft
Simboli :   Temporali  Nebbia  Neve Forte  Precipitazioni Forti  Vento > 20 kt
SIGMETs :   Varie  Temporali  Ghiacco  Turbolenza  Onda orograficha  Ceneri Vulcaniche






- Altitudine del aeroporto : 156 ft
- Codice IATA : LCC


LIBN - Lecce Galatine (military)

ULTIMO METAR :
  • 300655Z 36005KT 4000 BR BKN015 11/10 Q1012 RMK BKN VIS MIN 4000 WIND THR14 35006KT WIND THR32 35006KT GRN

METARs OBSOLETI :
  • 300555Z 31003KT 2000 BR SCT005 BKN010 08/07 Q1011 RMK BKN VIS MIN 2000 WIND THR14 30003KT WIND THR32 32003KT YLO
  • 300455Z 35002KT 1600 BR SCT003 06/05 Q1011 RMK BKN BKN060 VIS MIN 1600 WIND THR14 34002KT WIND THR32 36001KT YLO

Previsioni scadute.



MetMap, La meteo Aeronautica in un colpo d'occhio ! - Copyright ORBIFLY Dicembre 2007 - Disclaimer

ORBIFLY MET'MAP TEAM :

Programmazione e sviluppo : Alexandra Zaïnal
Concezione : Baudouin d'Aumeries
Aiuto per la programmazione : Marc-Olivier Méhu
Supporto tecnico e logistico : Manuel Goepfert
Aiuto per la traduzione : Arnaldo La Scala

Contatto : metmap@orbifly.com




FONTI E CREDITI :

   NOAA